sensor_id;sensor_type;location;lat;lon;timestamp;temperature;humidity
77523;SHT31;66637;-29.628;-49.938;2024-03-22T02:54:47;19.94;90.18
77523;SHT31;66637;-29.628;-49.938;2024-03-22T02:57:16;19.97;89.95
77523;SHT31;66637;-29.628;-49.938;2024-03-22T02:59:45;20.03;89.71
77523;SHT31;66637;-29.628;-49.938;2024-03-22T03:02:14;20.05;89.77
77523;SHT31;66637;-29.628;-49.938;2024-03-22T03:04:45;20.07;89.41
77523;SHT31;66637;-29.628;-49.938;2024-03-22T03:07:16;20.10;89.03
77523;SHT31;66637;-29.628;-49.938;2024-03-22T03:09:44;20.14;88.81
77523;SHT31;66637;-29.628;-49.938;2024-03-22T03:12:13;20.21;88.89
77523;SHT31;66637;-29.628;-49.938;2024-03-22T03:14:42;20.14;87.73
77523;SHT31;66637;-29.628;-49.938;2024-03-22T03:17:12;20.20;87.44
77523;SHT31;66637;-29.628;-49.938;2024-03-22T03:19:44;20.20;86.97
77523;SHT31;66637;-29.628;-49.938;2024-03-22T03:22:13;20.18;86.39
77523;SHT31;66637;-29.628;-49.938;2024-03-22T03:24:43;20.25;86.73
77523;SHT31;66637;-29.628;-49.938;2024-03-22T03:27:11;20.21;86.24
77523;SHT31;66637;-29.628;-49.938;2024-03-22T03:29:41;20.22;85.94
77523;SHT31;66637;-29.628;-49.938;2024-03-22T03:32:10;20.22;85.72
77523;SHT31;66637;-29.628;-49.938;2024-03-22T03:34:40;20.22;85.84
77523;SHT31;66637;-29.628;-49.938;2024-03-22T03:37:09;20.36;86.11
77523;SHT31;66637;-29.628;-49.938;2024-03-22T03:39:39;20.35;85.80
77523;SHT31;66637;-29.628;-49.938;2024-03-22T03:42:09;20.39;85.82
77523;SHT31;66637;-29.628;-49.938;2024-03-22T03:44:38;20.38;85.49
77523;SHT31;66637;-29.628;-49.938;2024-03-22T03:47:06;20.42;85.61
77523;SHT31;66637;-29.628;-49.938;2024-03-22T03:49:35;20.44;85.37
77523;SHT31;66637;-29.628;-49.938;2024-03-22T03:52:04;20.55;85.07
77523;SHT31;66637;-29.628;-49.938;2024-03-22T03:54:35;20.58;84.65
77523;SHT31;66637;-29.628;-49.938;2024-03-22T03:57:07;20.61;84.15
77523;SHT31;66637;-29.628;-49.938;2024-03-22T03:59:37;20.61;84.17
77523;SHT31;66637;-29.628;-49.938;2024-03-22T04:02:07;20.61;83.76
77523;SHT31;66637;-29.628;-49.938;2024-03-22T04:04:39;20.58;83.70
77523;SHT31;66637;-29.628;-49.938;2024-03-22T04:07:09;20.62;83.44
77523;SHT31;66637;-29.628;-49.938;2024-03-22T04:09:38;20.69;83.85
77523;SHT31;66637;-29.628;-49.938;2024-03-22T04:12:07;20.68;82.98
77523;SHT31;66637;-29.628;-49.938;2024-03-22T04:14:37;20.68;82.68
77523;SHT31;66637;-29.628;-49.938;2024-03-22T04:17:07;20.71;82.52
77523;SHT31;66637;-29.628;-49.938;2024-03-22T04:19:35;20.73;82.28
77523;SHT31;66637;-29.628;-49.938;2024-03-22T04:22:04;20.73;81.38
77523;SHT31;66637;-29.628;-49.938;2024-03-22T04:24:34;20.73;81.76
77523;SHT31;66637;-29.628;-49.938;2024-03-22T04:27:05;20.77;81.92
77523;SHT31;66637;-29.628;-49.938;2024-03-22T04:29:36;20.73;81.80
77523;SHT31;66637;-29.628;-49.938;2024-03-22T04:32:05;20.86;82.18
77523;SHT31;66637;-29.628;-49.938;2024-03-22T04:34:34;20.80;81.81
77523;SHT31;66637;-29.628;-49.938;2024-03-22T04:37:03;20.89;82.15
77523;SHT31;66637;-29.628;-49.938;2024-03-22T04:39:31;20.80;81.91
77523;SHT31;66637;-29.628;-49.938;2024-03-22T04:42:00;20.82;81.70
77523;SHT31;66637;-29.628;-49.938;2024-03-22T04:44:30;20.80;81.46
77523;SHT31;66637;-29.628;-49.938;2024-03-22T04:46:59;20.79;80.94
77523;SHT31;66637;-29.628;-49.938;2024-03-22T04:49:28;20.79;81.66
77523;SHT31;66637;-29.628;-49.938;2024-03-22T04:51:58;20.79;81.40
77523;SHT31;66637;-29.628;-49.938;2024-03-22T04:54:26;20.76;81.39
77523;SHT31;66637;-29.628;-49.938;2024-03-22T04:56:56;20.73;81.55
77523;SHT31;66637;-29.628;-49.938;2024-03-22T04:59:25;20.69;82.09
77523;SHT31;66637;-29.628;-49.938;2024-03-22T05:01:53;20.68;81.65
77523;SHT31;66637;-29.628;-49.938;2024-03-22T05:04:22;20.68;81.70
77523;SHT31;66637;-29.628;-49.938;2024-03-22T05:06:51;20.62;81.72
77523;SHT31;66637;-29.628;-49.938;2024-03-22T05:09:20;20.68;82.51
77523;SHT31;66637;-29.628;-49.938;2024-03-22T05:11:52;20.53;82.20
77523;SHT31;66637;-29.628;-49.938;2024-03-22T05:14:21;20.49;82.32
77523;SHT31;66637;-29.628;-49.938;2024-03-22T05:16:51;20.46;82.48
77523;SHT31;66637;-29.628;-49.938;2024-03-22T05:19:21;20.44;82.61
77523;SHT31;66637;-29.628;-49.938;2024-03-22T05:21:55;20.49;82.52
77523;SHT31;66637;-29.628;-49.938;2024-03-22T05:24:25;20.44;82.45
77523;SHT31;66637;-29.628;-49.938;2024-03-22T05:26:55;20.39;82.63
77523;SHT31;66637;-29.628;-49.938;2024-03-22T05:29:25;20.35;82.86
77523;SHT31;66637;-29.628;-49.938;2024-03-22T05:31:53;20.42;82.98
77523;SHT31;66637;-29.628;-49.938;2024-03-22T05:34:23;20.28;82.63
77523;SHT31;66637;-29.628;-49.938;2024-03-22T05:36:51;20.28;82.46
77523;SHT31;66637;-29.628;-49.938;2024-03-22T05:39:21;20.29;82.70
77523;SHT31;66637;-29.628;-49.938;2024-03-22T05:41:49;20.32;82.93
77523;SHT31;66637;-29.628;-49.938;2024-03-22T05:44:23;20.24;82.68
77523;SHT31;66637;-29.628;-49.938;2024-03-22T05:46:52;20.20;82.85
77523;SHT31;66637;-29.628;-49.938;2024-03-22T05:49:22;20.20;82.93
77523;SHT31;66637;-29.628;-49.938;2024-03-22T05:51:52;20.22;82.83
77523;SHT31;66637;-29.628;-49.938;2024-03-22T05:54:21;20.18;82.83
77523;SHT31;66637;-29.628;-49.938;2024-03-22T05:56:51;20.24;82.80
77523;SHT31;66637;-29.628;-49.938;2024-03-22T05:59:19;20.29;82.62
77523;SHT31;66637;-29.628;-49.938;2024-03-22T06:01:47;20.34;82.34
77523;SHT31;66637;-29.628;-49.938;2024-03-22T06:04:16;20.41;82.39
77523;SHT31;66637;-29.628;-49.938;2024-03-22T06:06:44;20.44;82.91
77523;SHT31;66637;-29.628;-49.938;2024-03-22T06:09:13;20.39;83.68
77523;SHT31;66637;-29.628;-49.938;2024-03-22T06:11:48;20.29;84.63
77523;SHT31;66637;-29.628;-49.938;2024-03-22T06:14:17;20.17;84.22
77523;SHT31;66637;-29.628;-49.938;2024-03-22T06:16:46;20.10;84.88
77523;SHT31;66637;-29.628;-49.938;2024-03-22T06:19:18;20.08;85.28
77523;SHT31;66637;-29.628;-49.938;2024-03-22T06:21:48;20.04;85.43
77523;SHT31;66637;-29.628;-49.938;2024-03-22T06:24:19;20.04;85.72
77523;SHT31;66637;-29.628;-49.938;2024-03-22T06:26:48;20.03;85.99
77523;SHT31;66637;-29.628;-49.938;2024-03-22T06:29:18;20.08;86.03
77523;SHT31;66637;-29.628;-49.938;2024-03-22T06:31:47;20.08;86.16
77523;SHT31;66637;-29.628;-49.938;2024-03-22T06:34:19;20.15;86.22
77523;SHT31;66637;-29.628;-49.938;2024-03-22T06:36:48;20.20;86.15
77523;SHT31;66637;-29.628;-49.938;2024-03-22T06:39:18;20.21;85.97
77523;SHT31;66637;-29.628;-49.938;2024-03-22T06:41:48;20.26;85.63
77523;SHT31;66637;-29.628;-49.938;2024-03-22T06:44:17;20.22;85.45
77523;SHT31;66637;-29.628;-49.938;2024-03-22T06:46:46;20.26;85.62
77523;SHT31;66637;-29.628;-49.938;2024-03-22T06:49:16;20.25;85.65
77523;SHT31;66637;-29.628;-49.938;2024-03-22T06:51:46;20.25;85.58
77523;SHT31;66637;-29.628;-49.938;2024-03-22T06:54:15;20.25;85.60
77523;SHT31;66637;-29.628;-49.938;2024-03-22T06:56:44;20.22;85.27
77523;SHT31;66637;-29.628;-49.938;2024-03-22T06:59:13;20.22;84.98
77523;SHT31;66637;-29.628;-49.938;2024-03-22T07:01:42;20.24;84.83
77523;SHT31;66637;-29.628;-49.938;2024-03-22T07:04:14;20.29;84.38
77523;SHT31;66637;-29.628;-49.938;2024-03-22T07:06:44;20.36;84.16
77523;SHT31;66637;-29.628;-49.938;2024-03-22T07:09:14;20.31;83.72
77523;SHT31;66637;-29.628;-49.938;2024-03-22T07:11:44;20.28;83.67
77523;SHT31;66637;-29.628;-49.938;2024-03-22T07:14:27;20.24;83.58
77523;SHT31;66637;-29.628;-49.938;2024-03-22T07:16:56;20.22;83.31
77523;SHT31;66637;-29.628;-49.938;2024-03-22T07:19:27;20.24;83.14
77523;SHT31;66637;-29.628;-49.938;2024-03-22T07:21:57;20.20;82.64
77523;SHT31;66637;-29.628;-49.938;2024-03-22T07:24:28;20.20;82.28
77523;SHT31;66637;-29.628;-49.938;2024-03-22T07:27:00;20.13;82.31
77523;SHT31;66637;-29.628;-49.938;2024-03-22T07:29:29;20.18;82.30
77523;SHT31;66637;-29.628;-49.938;2024-03-22T07:31:58;20.17;81.54
77523;SHT31;66637;-29.628;-49.938;2024-03-22T07:34:28;20.13;81.54
77523;SHT31;66637;-29.628;-49.938;2024-03-22T07:36:57;20.07;81.31
77523;SHT31;66637;-29.628;-49.938;2024-03-22T07:39:27;20.10;81.34
77523;SHT31;66637;-29.628;-49.938;2024-03-22T07:41:58;20.07;81.21
77523;SHT31;66637;-29.628;-49.938;2024-03-22T07:44:28;20.07;81.48
77523;SHT31;66637;-29.628;-49.938;2024-03-22T07:46:56;20.05;81.23
77523;SHT31;66637;-29.628;-49.938;2024-03-22T07:49:25;20.13;81.47
77523;SHT31;66637;-29.628;-49.938;2024-03-22T07:51:53;20.14;81.80
77523;SHT31;66637;-29.628;-49.938;2024-03-22T07:54:23;20.01;81.41
77523;SHT31;66637;-29.628;-49.938;2024-03-22T07:56:52;20.00;81.32
77523;SHT31;66637;-29.628;-49.938;2024-03-22T07:59:22;19.97;81.45
77523;SHT31;66637;-29.628;-49.938;2024-03-22T08:01:52;19.97;81.60
77523;SHT31;66637;-29.628;-49.938;2024-03-22T08:04:20;19.91;81.60
77523;SHT31;66637;-29.628;-49.938;2024-03-22T08:06:52;19.93;81.76
77523;SHT31;66637;-29.628;-49.938;2024-03-22T08:09:22;19.88;81.89
77523;SHT31;66637;-29.628;-49.938;2024-03-22T08:11:51;19.87;82.21
77523;SHT31;66637;-29.628;-49.938;2024-03-22T08:14:20;19.87;82.29
77523;SHT31;66637;-29.628;-49.938;2024-03-22T08:16:49;19.87;82.65
77523;SHT31;66637;-29.628;-49.938;2024-03-22T08:19:18;19.85;82.71
77523;SHT31;66637;-29.628;-49.938;2024-03-22T08:21:48;19.87;83.02
77523;SHT31;66637;-29.628;-49.938;2024-03-22T08:24:19;19.84;82.96
77523;SHT31;66637;-29.628;-49.938;2024-03-22T08:26:48;19.88;82.92
77523;SHT31;66637;-29.628;-49.938;2024-03-22T08:29:19;19.91;83.11
77523;SHT31;66637;-29.628;-49.938;2024-03-22T08:31:48;19.91;83.20
77523;SHT31;66637;-29.628;-49.938;2024-03-22T08:34:19;19.93;83.21
77523;SHT31;66637;-29.628;-49.938;2024-03-22T08:36:49;19.91;83.21
77523;SHT31;66637;-29.628;-49.938;2024-03-22T08:39:19;19.88;83.22
77523;SHT31;66637;-29.628;-49.938;2024-03-22T08:41:49;19.87;83.38
77523;SHT31;66637;-29.628;-49.938;2024-03-22T08:44:18;19.88;83.69
77523;SHT31;66637;-29.628;-49.938;2024-03-22T08:46:47;19.84;83.94
77523;SHT31;66637;-29.628;-49.938;2024-03-22T08:49:18;19.83;84.06
77523;SHT31;66637;-29.628;-49.938;2024-03-22T08:51:49;19.77;84.27
77523;SHT31;66637;-29.628;-49.938;2024-03-22T08:54:21;19.77;84.24
77523;SHT31;66637;-29.628;-49.938;2024-03-22T08:56:51;19.75;84.37
77523;SHT31;66637;-29.628;-49.938;2024-03-22T08:59:19;19.71;84.41
77523;SHT31;66637;-29.628;-49.938;2024-03-22T09:01:47;19.70;84.47
77523;SHT31;66637;-29.628;-49.938;2024-03-22T09:04:17;19.70;84.41
77523;SHT31;66637;-29.628;-49.938;2024-03-22T09:06:47;19.67;84.53
77523;SHT31;66637;-29.628;-49.938;2024-03-22T09:09:17;19.69;84.53
77523;SHT31;66637;-29.628;-49.938;2024-03-22T09:11:48;19.63;84.47
77523;SHT31;66637;-29.628;-49.938;2024-03-22T09:14:17;19.67;84.45
77523;SHT31;66637;-29.628;-49.938;2024-03-22T09:16:46;19.70;84.32
77523;SHT31;66637;-29.628;-49.938;2024-03-22T09:19:16;19.66;84.41
77523;SHT31;66637;-29.628;-49.938;2024-03-22T09:21:45;19.75;84.29
77523;SHT31;66637;-29.628;-49.938;2024-03-22T09:24:14;19.62;84.64
77523;SHT31;66637;-29.628;-49.938;2024-03-22T09:26:44;19.57;84.74
77523;SHT31;66637;-29.628;-49.938;2024-03-22T09:29:15;19.56;84.91
77523;SHT31;66637;-29.628;-49.938;2024-03-22T09:31:45;19.53;85.21
77523;SHT31;66637;-29.628;-49.938;2024-03-22T09:34:14;19.63;85.09
77523;SHT31;66637;-29.628;-49.938;2024-03-22T09:36:44;19.53;85.31
77523;SHT31;66637;-29.628;-49.938;2024-03-22T09:39:13;19.57;85.30
77523;SHT31;66637;-29.628;-49.938;2024-03-22T09:41:43;19.62;85.30
77523;SHT31;66637;-29.628;-49.938;2024-03-22T09:44:13;19.67;85.20
77523;SHT31;66637;-29.628;-49.938;2024-03-22T09:46:46;19.71;85.11
77523;SHT31;66637;-29.628;-49.938;2024-03-22T09:49:17;19.74;84.95
77523;SHT31;66637;-29.628;-49.938;2024-03-22T09:51:46;19.90;84.89
77523;SHT31;66637;-29.628;-49.938;2024-03-22T09:54:16;19.90;84.35
77523;SHT31;66637;-29.628;-49.938;2024-03-22T09:56:48;19.98;84.37
77523;SHT31;66637;-29.628;-49.938;2024-03-22T09:59:18;20.08;84.15
77523;SHT31;66637;-29.628;-49.938;2024-03-22T10:01:48;20.07;84.25
77523;SHT31;66637;-29.628;-49.938;2024-03-22T10:04:19;20.10;84.20
77523;SHT31;66637;-29.628;-49.938;2024-03-22T10:06:48;20.15;84.00
77523;SHT31;66637;-29.628;-49.938;2024-03-22T10:09:17;20.14;84.12
77523;SHT31;66637;-29.628;-49.938;2024-03-22T10:11:47;20.20;84.29
77523;SHT31;66637;-29.628;-49.938;2024-03-22T10:14:17;20.28;83.71
77523;SHT31;66637;-29.628;-49.938;2024-03-22T10:16:46;20.34;83.68
77523;SHT31;66637;-29.628;-49.938;2024-03-22T10:19:16;20.38;83.60
77523;SHT31;66637;-29.628;-49.938;2024-03-22T10:21:44;20.48;83.31
77523;SHT31;66637;-29.628;-49.938;2024-03-22T10:24:14;20.61;82.81
77523;SHT31;66637;-29.628;-49.938;2024-03-22T10:26:46;20.69;82.22
77523;SHT31;66637;-29.628;-49.938;2024-03-22T10:29:15;20.79;81.88
77523;SHT31;66637;-29.628;-49.938;2024-03-22T10:31:44;20.86;81.79
77523;SHT31;66637;-29.628;-49.938;2024-03-22T10:34:13;20.97;82.17
77523;SHT31;66637;-29.628;-49.938;2024-03-22T10:36:48;20.92;81.77
77523;SHT31;66637;-29.628;-49.938;2024-03-22T10:39:18;21.00;80.88
77523;SHT31;66637;-29.628;-49.938;2024-03-22T10:41:48;21.20;80.49
77523;SHT31;66637;-29.628;-49.938;2024-03-22T10:44:16;22.38;77.86
77523;SHT31;66637;-29.628;-49.938;2024-03-22T10:46:47;24.71;71.83
77523;SHT31;66637;-29.628;-49.938;2024-03-22T10:49:19;25.00;70.35
77523;SHT31;66637;-29.628;-49.938;2024-03-22T10:51:54;23.44;74.45
77523;SHT31;66637;-29.628;-49.938;2024-03-22T10:54:30;23.15;74.98
77523;SHT31;66637;-29.628;-49.938;2024-03-22T10:57:01;22.62;75.57
77523;SHT31;66637;-29.628;-49.938;2024-03-22T10:59:35;22.28;76.98
77523;SHT31;66637;-29.628;-49.938;2024-03-22T11:02:04;22.11;76.78
77523;SHT31;66637;-29.628;-49.938;2024-03-22T11:04:36;22.11;77.57
77523;SHT31;66637;-29.628;-49.938;2024-03-22T11:07:06;22.19;77.67
77523;SHT31;66637;-29.628;-49.938;2024-03-22T11:09:36;22.72;77.63
77523;SHT31;66637;-29.628;-49.938;2024-03-22T11:12:08;22.74;77.45
77523;SHT31;66637;-29.628;-49.938;2024-03-22T11:14:38;22.48;76.67
77523;SHT31;66637;-29.628;-49.938;2024-03-22T11:17:07;22.57;76.91
77523;SHT31;66637;-29.628;-49.938;2024-03-22T11:19:37;23.00;75.64
77523;SHT31;66637;-29.628;-49.938;2024-03-22T11:22:08;23.06;76.33
77523;SHT31;66637;-29.628;-49.938;2024-03-22T11:24:38;23.10;75.16
77523;SHT31;66637;-29.628;-49.938;2024-03-22T11:27:11;22.90;76.19
77523;SHT31;66637;-29.628;-49.938;2024-03-22T11:29:41;22.70;74.74
77523;SHT31;66637;-29.628;-49.938;2024-03-22T11:32:15;22.69;75.08
77523;SHT31;66637;-29.628;-49.938;2024-03-22T11:34:45;23.02;74.56
77523;SHT31;66637;-29.628;-49.938;2024-03-22T11:37:16;23.37;75.37
77523;SHT31;66637;-29.628;-49.938;2024-03-22T11:39:44;23.71;72.28
77523;SHT31;66637;-29.628;-49.938;2024-03-22T11:42:14;23.76;71.76
77523;SHT31;66637;-29.628;-49.938;2024-03-22T11:44:44;24.26;70.75
77523;SHT31;66637;-29.628;-49.938;2024-03-22T11:47:13;24.37;70.43
77523;SHT31;66637;-29.628;-49.938;2024-03-22T11:49:41;24.67;69.34
77523;SHT31;66637;-29.628;-49.938;2024-03-22T11:52:11;25.00;69.38
77523;SHT31;66637;-29.628;-49.938;2024-03-22T11:54:42;24.90;69.45
77523;SHT31;66637;-29.628;-49.938;2024-03-22T11:57:11;25.20;67.86
77523;SHT31;66637;-29.628;-49.938;2024-03-22T11:59:40;25.31;67.02
77523;SHT31;66637;-29.628;-49.938;2024-03-22T12:02:11;25.39;66.71
77523;SHT31;66637;-29.628;-49.938;2024-03-22T12:04:41;25.69;69.08
77523;SHT31;66637;-29.628;-49.938;2024-03-22T12:07:17;25.79;66.45
77523;SHT31;66637;-29.628;-49.938;2024-03-22T12:09:47;25.78;66.50
77523;SHT31;66637;-29.628;-49.938;2024-03-22T12:12:22;25.99;66.58
77523;SHT31;66637;-29.628;-49.938;2024-03-22T12:14:54;26.33;64.45
77523;SHT31;66637;-29.628;-49.938;2024-03-22T12:17:27;26.37;63.27
77523;SHT31;66637;-29.628;-49.938;2024-03-22T12:19:57;26.41;63.90
77523;SHT31;66637;-29.628;-49.938;2024-03-22T12:22:26;26.57;67.53
77523;SHT31;66637;-29.628;-49.938;2024-03-22T12:24:58;26.03;64.38
77523;SHT31;66637;-29.628;-49.938;2024-03-22T12:27:28;25.55;67.43
77523;SHT31;66637;-29.628;-49.938;2024-03-22T12:29:58;25.69;65.91
77523;SHT31;66637;-29.628;-49.938;2024-03-22T12:32:31;25.75;67.38
77523;SHT31;66637;-29.628;-49.938;2024-03-22T12:35:01;25.92;66.30
77523;SHT31;66637;-29.628;-49.938;2024-03-22T12:37:31;25.90;65.57
77523;SHT31;66637;-29.628;-49.938;2024-03-22T12:40:03;25.71;65.13
77523;SHT31;66637;-29.628;-49.938;2024-03-22T12:42:33;25.68;66.41
77523;SHT31;66637;-29.628;-49.938;2024-03-22T12:45:03;26.22;65.27
77523;SHT31;66637;-29.628;-49.938;2024-03-22T12:47:35;26.40;65.40
77523;SHT31;66637;-29.628;-49.938;2024-03-22T12:50:06;25.96;65.09
77523;SHT31;66637;-29.628;-49.938;2024-03-22T12:52:36;26.20;65.34
77523;SHT31;66637;-29.628;-49.938;2024-03-22T12:55:06;26.58;64.63
77523;SHT31;66637;-29.628;-49.938;2024-03-22T12:57:35;26.17;65.64
77523;SHT31;66637;-29.628;-49.938;2024-03-22T13:00:06;26.16;66.01
77523;SHT31;66637;-29.628;-49.938;2024-03-22T13:02:42;26.40;63.50
77523;SHT31;66637;-29.628;-49.938;2024-03-22T13:05:12;26.44;64.21
77523;SHT31;66637;-29.628;-49.938;2024-03-22T13:07:44;26.53;63.61
77523;SHT31;66637;-29.628;-49.938;2024-03-22T13:10:13;26.80;63.52
77523;SHT31;66637;-29.628;-49.938;2024-03-22T13:12:43;26.48;62.18
77523;SHT31;66637;-29.628;-49.938;2024-03-22T13:15:13;26.54;63.24
77523;SHT31;66637;-29.628;-49.938;2024-03-22T13:17:45;27.02;64.16
77523;SHT31;66637;-29.628;-49.938;2024-03-22T13:20:14;26.92;62.70
77523;SHT31;66637;-29.628;-49.938;2024-03-22T13:22:44;26.53;66.33
77523;SHT31;66637;-29.628;-49.938;2024-03-22T13:25:15;26.19;65.82
77523;SHT31;66637;-29.628;-49.938;2024-03-22T13:27:45;25.97;67.17
77523;SHT31;66637;-29.628;-49.938;2024-03-22T13:30:14;26.16;64.84
77523;SHT31;66637;-29.628;-49.938;2024-03-22T13:32:43;26.50;66.11
77523;SHT31;66637;-29.628;-49.938;2024-03-22T13:35:12;26.84;65.34
77523;SHT31;66637;-29.628;-49.938;2024-03-22T13:37:42;26.87;63.12
77523;SHT31;66637;-29.628;-49.938;2024-03-22T13:40:12;26.84;64.53
77523;SHT31;66637;-29.628;-49.938;2024-03-22T13:42:43;26.76;63.63
77523;SHT31;66637;-29.628;-49.938;2024-03-22T13:45:12;26.90;63.73
77523;SHT31;66637;-29.628;-49.938;2024-03-22T13:47:41;26.80;64.63
77523;SHT31;66637;-29.628;-49.938;2024-03-22T13:50:12;26.67;62.72
77523;SHT31;66637;-29.628;-49.938;2024-03-22T13:52:41;26.92;61.41
77523;SHT31;66637;-29.628;-49.938;2024-03-22T13:55:09;26.98;64.94
77523;SHT31;66637;-29.628;-49.938;2024-03-22T13:57:39;26.73;64.89
77523;SHT31;66637;-29.628;-49.938;2024-03-22T14:00:09;26.68;62.12
77523;SHT31;66637;-29.628;-49.938;2024-03-22T14:02:43;26.84;62.05
77523;SHT31;66637;-29.628;-49.938;2024-03-22T14:05:14;26.81;63.74
77523;SHT31;66637;-29.628;-49.938;2024-03-22T14:07:45;26.84;64.61
77523;SHT31;66637;-29.628;-49.938;2024-03-22T14:10:21;26.88;62.72
77523;SHT31;66637;-29.628;-49.938;2024-03-22T14:12:51;26.94;63.39
77523;SHT31;66637;-29.628;-49.938;2024-03-22T14:15:22;27.15;62.64
77523;SHT31;66637;-29.628;-49.938;2024-03-22T14:17:54;27.01;61.28
77523;SHT31;66637;-29.628;-49.938;2024-03-22T14:20:25;26.95;63.91
77523;SHT31;66637;-29.628;-49.938;2024-03-22T14:22:56;27.07;62.36
77523;SHT31;66637;-29.628;-49.938;2024-03-22T14:25:27;27.02;63.45
77523;SHT31;66637;-29.628;-49.938;2024-03-22T14:27:59;26.95;64.44
77523;SHT31;66637;-29.628;-49.938;2024-03-22T14:30:32;27.07;64.45
77523;SHT31;66637;-29.628;-49.938;2024-03-22T14:33:00;27.09;61.93
77523;SHT31;66637;-29.628;-49.938;2024-03-22T14:35:30;26.99;65.83
77523;SHT31;66637;-29.628;-49.938;2024-03-22T14:37:58;27.04;63.86
77523;SHT31;66637;-29.628;-49.938;2024-03-22T14:40:28;26.98;63.28
77523;SHT31;66637;-29.628;-49.938;2024-03-22T14:43:00;27.09;61.91
77523;SHT31;66637;-29.628;-49.938;2024-03-22T14:45:28;26.99;65.60
77523;SHT31;66637;-29.628;-49.938;2024-03-22T14:47:58;27.11;65.36
77523;SHT31;66637;-29.628;-49.938;2024-03-22T14:50:27;27.27;62.84
77523;SHT31;66637;-29.628;-49.938;2024-03-22T14:52:56;27.41;63.35
77523;SHT31;66637;-29.628;-49.938;2024-03-22T14:55:24;27.27;62.28
77523;SHT31;66637;-29.628;-49.938;2024-03-22T14:57:52;27.11;63.66
77523;SHT31;66637;-29.628;-49.938;2024-03-22T15:00:21;27.02;62.73
77523;SHT31;66637;-29.628;-49.938;2024-03-22T15:02:49;26.97;62.16
77523;SHT31;66637;-29.628;-49.938;2024-03-22T15:05:19;27.14;64.42
77523;SHT31;66637;-29.628;-49.938;2024-03-22T15:07:48;27.05;64.30
77523;SHT31;66637;-29.628;-49.938;2024-03-22T15:10:17;26.77;63.57
77523;SHT31;66637;-29.628;-49.938;2024-03-22T15:12:45;26.71;64.62
77523;SHT31;66637;-29.628;-49.938;2024-03-22T15:15:15;26.63;63.57
77523;SHT31;66637;-29.628;-49.938;2024-03-22T15:17:43;26.53;64.51
77523;SHT31;66637;-29.628;-49.938;2024-03-22T15:20:11;26.67;64.54
77523;SHT31;66637;-29.628;-49.938;2024-03-22T15:22:40;26.68;64.89
77523;SHT31;66637;-29.628;-49.938;2024-03-22T15:25:08;26.77;63.54
77523;SHT31;66637;-29.628;-49.938;2024-03-22T15:27:39;26.65;63.16
77523;SHT31;66637;-29.628;-49.938;2024-03-22T15:30:14;26.60;63.87
77523;SHT31;66637;-29.628;-49.938;2024-03-22T15:32:44;26.47;65.44
77523;SHT31;66637;-29.628;-49.938;2024-03-22T15:35:13;26.05;66.51
77523;SHT31;66637;-29.628;-49.938;2024-03-22T15:37:44;26.22;68.20
77523;SHT31;66637;-29.628;-49.938;2024-03-22T15:40:16;26.33;67.08
77523;SHT31;66637;-29.628;-49.938;2024-03-22T15:42:51;26.24;67.00
77523;SHT31;66637;-29.628;-49.938;2024-03-22T15:45:20;26.33;66.19
77523;SHT31;66637;-29.628;-49.938;2024-03-22T15:47:50;26.41;65.91
77523;SHT31;66637;-29.628;-49.938;2024-03-22T15:50:18;26.71;65.76
77523;SHT31;66637;-29.628;-49.938;2024-03-22T15:52:47;26.64;64.47
77523;SHT31;66637;-29.628;-49.938;2024-03-22T15:55:18;26.44;66.63
77523;SHT31;66637;-29.628;-49.938;2024-03-22T15:57:47;26.57;65.57
77523;SHT31;66637;-29.628;-49.938;2024-03-22T16:00:21;26.64;68.12
77523;SHT31;66637;-29.628;-49.938;2024-03-22T16:02:51;26.76;66.25
77523;SHT31;66637;-29.628;-49.938;2024-03-22T16:05:20;26.67;66.50
77523;SHT31;66637;-29.628;-49.938;2024-03-22T16:07:51;26.63;64.37
77523;SHT31;66637;-29.628;-49.938;2024-03-22T16:10:21;26.56;65.51
77523;SHT31;66637;-29.628;-49.938;2024-03-22T16:12:53;26.57;67.23
77523;SHT31;66637;-29.628;-49.938;2024-03-22T16:15:23;26.63;66.75
77523;SHT31;66637;-29.628;-49.938;2024-03-22T16:17:52;26.53;64.20
77523;SHT31;66637;-29.628;-49.938;2024-03-22T16:20:29;26.46;67.49
77523;SHT31;66637;-29.628;-49.938;2024-03-22T16:23:01;26.60;66.20
77523;SHT31;66637;-29.628;-49.938;2024-03-22T16:25:36;26.64;66.97
77523;SHT31;66637;-29.628;-49.938;2024-03-22T16:28:09;26.51;66.81
77523;SHT31;66637;-29.628;-49.938;2024-03-22T16:30:39;26.56;66.25
77523;SHT31;66637;-29.628;-49.938;2024-03-22T16:33:07;26.60;65.78
77523;SHT31;66637;-29.628;-49.938;2024-03-22T16:35:38;26.43;66.18
77523;SHT31;66637;-29.628;-49.938;2024-03-22T16:38:06;26.46;65.96
77523;SHT31;66637;-29.628;-49.938;2024-03-22T16:40:36;26.41;66.44
77523;SHT31;66637;-29.628;-49.938;2024-03-22T16:43:06;26.48;65.57
77523;SHT31;66637;-29.628;-49.938;2024-03-22T16:45:35;26.57;65.89
77523;SHT31;66637;-29.628;-49.938;2024-03-22T16:48:09;26.48;64.72
77523;SHT31;66637;-29.628;-49.938;2024-03-22T16:50:40;26.54;65.65
77523;SHT31;66637;-29.628;-49.938;2024-03-22T16:53:13;26.40;66.72
77523;SHT31;66637;-29.628;-49.938;2024-03-22T16:55:43;26.46;66.60
77523;SHT31;66637;-29.628;-49.938;2024-03-22T16:58:13;26.46;66.66
77523;SHT31;66637;-29.628;-49.938;2024-03-22T17:00:44;26.43;67.27
77523;SHT31;66637;-29.628;-49.938;2024-03-22T17:03:17;26.39;64.90
77523;SHT31;66637;-29.628;-49.938;2024-03-22T17:05:48;26.33;64.91
77523;SHT31;66637;-29.628;-49.938;2024-03-22T17:08:18;26.32;66.37
77523;SHT31;66637;-29.628;-49.938;2024-03-22T17:10:49;26.39;65.01
77523;SHT31;66637;-29.628;-49.938;2024-03-22T17:13:28;26.32;64.19
77523;SHT31;66637;-29.628;-49.938;2024-03-22T17:15:57;26.22;66.30
77523;SHT31;66637;-29.628;-49.938;2024-03-22T17:18:28;26.32;65.48
77523;SHT31;66637;-29.628;-49.938;2024-03-22T17:20:56;26.23;66.91
77523;SHT31;66637;-29.628;-49.938;2024-03-22T17:23:27;26.44;67.25
77523;SHT31;66637;-29.628;-49.938;2024-03-22T17:25:59;26.34;65.95
77523;SHT31;66637;-29.628;-49.938;2024-03-22T17:28:31;26.20;65.06
77523;SHT31;66637;-29.628;-49.938;2024-03-22T17:31:02;26.24;68.58
77523;SHT31;66637;-29.628;-49.938;2024-03-22T17:33:31;26.32;65.48
77523;SHT31;66637;-29.628;-49.938;2024-03-22T17:36:01;26.33;65.21
77523;SHT31;66637;-29.628;-49.938;2024-03-22T17:38:32;26.32;66.66
77523;SHT31;66637;-29.628;-49.938;2024-03-22T17:41:05;26.24;65.71
77523;SHT31;66637;-29.628;-49.938;2024-03-22T17:43:34;26.22;65.07
77523;SHT31;66637;-29.628;-49.938;2024-03-22T17:46:07;26.14;66.39
77523;SHT31;66637;-29.628;-49.938;2024-03-22T17:48:46;26.17;67.49
77523;SHT31;66637;-29.628;-49.938;2024-03-22T17:51:15;26.17;67.18
77523;SHT31;66637;-29.628;-49.938;2024-03-22T17:53:49;26.07;66.59
77523;SHT31;66637;-29.628;-49.938;2024-03-22T17:56:17;26.16;66.62
77523;SHT31;66637;-29.628;-49.938;2024-03-22T17:58:46;26.16;66.36